createdAt,value
2022-12-16T00:01:26.068Z,100871.84
2022-12-16T00:03:55.338Z,100873.94
2022-12-16T00:06:24.380Z,100868.00
2022-12-16T00:08:51.837Z,100872.63
2022-12-16T00:11:19.919Z,100877.47
2022-12-16T00:13:47.521Z,100884.22
2022-12-16T00:16:16.647Z,100881.50
2022-12-16T00:18:43.452Z,100885.50
2022-12-16T00:21:09.968Z,100883.56
2022-12-16T00:23:39.034Z,100882.44
2022-12-16T00:26:05.837Z,100883.97
2022-12-16T00:28:32.283Z,100884.50
2022-12-16T00:30:58.869Z,100888.75
2022-12-16T00:33:26.910Z,100882.31
2022-12-16T00:35:54.924Z,100881.41
2022-12-16T00:38:22.369Z,100873.50
2022-12-16T00:40:49.014Z,100888.88
2022-12-16T00:43:15.785Z,100883.63
2022-12-16T00:45:42.310Z,100892.03
2022-12-16T00:48:08.812Z,100893.88
2022-12-16T00:50:36.158Z,100893.56
2022-12-16T00:53:03.941Z,100871.47
2022-12-16T00:55:30.743Z,100902.06
2022-12-16T00:57:57.112Z,100896.94
2022-12-16T01:00:23.887Z,100903.59
2022-12-16T01:02:51.211Z,100910.56
2022-12-16T01:05:26.460Z,100916.59
2022-12-16T01:07:56.347Z,100906.16
2022-12-16T01:10:24.904Z,100902.81
2022-12-16T01:12:51.621Z,100916.66
2022-12-16T01:15:18.999Z,100916.47
2022-12-16T01:17:45.774Z,100915.53
2022-12-16T01:20:13.339Z,100913.09
2022-12-16T01:22:39.852Z,100932.19
2022-12-16T01:25:06.713Z,100928.69
2022-12-16T01:27:33.126Z,100932.09
2022-12-16T01:29:59.580Z,100933.03
2022-12-16T01:32:26.018Z,100934.88
2022-12-16T01:34:55.166Z,100936.50
2022-12-16T01:37:23.644Z,100932.03
2022-12-16T01:39:50.713Z,100936.59
2022-12-16T01:42:19.900Z,100945.16
2022-12-16T01:44:48.464Z,100945.31
2022-12-16T01:47:33.536Z,100944.41
2022-12-16T01:50:15.882Z,100946.94
2022-12-16T01:52:49.520Z,100946.03
2022-12-16T01:55:21.144Z,100948.88
2022-12-16T01:57:55.876Z,100948.88
2022-12-16T02:00:22.590Z,100950.66
2022-12-16T02:02:50.909Z,100949.22
2022-12-16T02:05:20.646Z,100947.53
2022-12-16T02:07:56.253Z,100949.13
2022-12-16T02:10:33.084Z,100947.53
2022-12-16T02:13:10.228Z,100952.00
2022-12-16T02:15:46.544Z,100944.28
2022-12-16T02:18:42.168Z,100948.75
2022-12-16T02:21:23.611Z,100940.34
2022-12-16T02:24:20.609Z,100948.25
2022-12-16T02:27:17.754Z,100940.66
2022-12-16T02:29:44.116Z,100946.25
2022-12-16T02:32:20.573Z,100950.94
2022-12-16T02:35:33.926Z,100950.94
2022-12-16T02:38:12.512Z,100952.28
2022-12-16T02:40:46.780Z,100941.38
2022-12-16T02:43:22.234Z,100946.16
2022-12-16T02:45:49.817Z,100945.41
2022-12-16T02:48:16.908Z,100920.75
2022-12-16T02:50:49.391Z,100941.53
2022-12-16T02:53:16.039Z,100947.00
2022-12-16T02:55:45.102Z,100948.00
2022-12-16T02:58:31.764Z,100948.28
2022-12-16T03:01:29.321Z,100946.75
2022-12-16T03:04:03.098Z,100951.59
2022-12-16T03:06:33.272Z,100955.44
2022-12-16T03:09:00.666Z,100957.06
2022-12-16T03:11:29.996Z,100951.63
2022-12-16T03:13:57.858Z,100950.28
2022-12-16T03:16:28.860Z,100942.91
2022-12-16T03:18:59.609Z,100953.47
2022-12-16T03:21:32.126Z,100940.09
2022-12-16T03:24:01.864Z,100947.31
2022-12-16T03:26:38.328Z,100958.06
2022-12-16T03:29:07.435Z,100967.22
2022-12-16T03:31:42.680Z,100966.00
2022-12-16T03:34:29.839Z,100964.56
2022-12-16T03:37:02.150Z,100953.09
2022-12-16T03:39:30.987Z,100972.59
2022-12-16T03:41:58.833Z,100975.75
2022-12-16T03:44:25.519Z,100978.41
2022-12-16T03:46:52.606Z,100972.81
2022-12-16T03:49:18.996Z,100976.69
2022-12-16T03:51:45.397Z,100972.72
2022-12-16T03:54:12.022Z,100992.91
2022-12-16T03:56:38.391Z,100993.16
2022-12-16T03:59:05.111Z,100981.50
2022-12-16T04:01:31.602Z,100993.72
2022-12-16T04:03:58.198Z,100984.47
2022-12-16T04:06:24.609Z,100989.03
2022-12-16T04:08:51.020Z,100994.34
2022-12-16T04:11:35.710Z,100998.03
2022-12-16T04:14:20.820Z,100999.25
2022-12-16T04:17:06.154Z,101000.47
2022-12-16T04:19:55.393Z,101004.97
2022-12-16T04:22:55.373Z,101004.38
2022-12-16T04:25:32.720Z,101016.81
2022-12-16T04:27:59.366Z,101023.09
2022-12-16T04:30:27.826Z,101017.28
2022-12-16T04:33:18.458Z,101015.66
2022-12-16T04:36:04.089Z,101020.19
2022-12-16T04:38:49.935Z,101020.38
2022-12-16T04:41:35.689Z,101026.69
2022-12-16T04:44:21.213Z,101032.88
2022-12-16T04:47:06.694Z,101030.38
2022-12-16T04:49:52.221Z,101040.81
2022-12-16T04:52:37.995Z,101039.06
2022-12-16T04:55:24.131Z,101036.44
2022-12-16T04:58:17.188Z,101035.63
2022-12-16T05:01:03.304Z,101042.47
2022-12-16T05:03:49.027Z,101046.00
2022-12-16T05:06:34.936Z,101039.16
2022-12-16T05:09:20.187Z,101060.75
2022-12-16T05:12:05.572Z,101047.81
2022-12-16T05:14:50.549Z,101054.84
2022-12-16T05:17:35.957Z,101048.66
2022-12-16T05:20:21.468Z,101047.69
2022-12-16T05:23:06.262Z,101068.25
2022-12-16T05:25:51.271Z,101066.41
2022-12-16T05:28:36.441Z,101065.44
2022-12-16T05:31:21.734Z,101071.41
2022-12-16T05:34:06.901Z,101077.44
2022-12-16T05:36:51.986Z,101087.66
2022-12-16T05:39:37.130Z,101090.88
2022-12-16T05:42:22.496Z,101080.28
2022-12-16T05:45:07.607Z,101087.06
2022-12-16T05:47:52.366Z,101091.22
2022-12-16T05:50:37.344Z,101102.13
2022-12-16T05:53:22.149Z,101098.44
2022-12-16T05:56:07.317Z,101099.09
2022-12-16T05:58:52.304Z,101092.97
2022-12-16T06:01:37.130Z,101103.16
2022-12-16T06:04:22.334Z,101112.50
2022-12-16T06:07:07.653Z,101103.91
2022-12-16T06:10:06.455Z,101114.22
2022-12-16T06:12:51.187Z,101117.81
2022-12-16T06:15:36.172Z,101122.50
2022-12-16T06:18:21.000Z,101109.94
2022-12-16T06:21:06.036Z,101122.16
2022-12-16T06:23:51.065Z,101125.03
2022-12-16T06:26:35.987Z,101120.16
2022-12-16T06:29:21.094Z,101129.88
2022-12-16T06:32:05.903Z,101125.69
2022-12-16T06:34:51.108Z,101136.28
2022-12-16T06:37:35.851Z,101138.06
2022-12-16T06:40:20.957Z,101142.38
2022-12-16T06:43:05.730Z,101150.06
2022-12-16T06:45:50.900Z,101151.81
2022-12-16T06:48:35.907Z,101153.41
2022-12-16T06:51:20.656Z,101161.84
2022-12-16T06:54:05.460Z,101159.13
2022-12-16T06:56:50.120Z,101174.72
2022-12-16T06:59:35.412Z,101160.88
2022-12-16T07:02:20.183Z,101174.53
2022-12-16T07:05:05.238Z,101165.94
2022-12-16T07:07:50.063Z,101175.31
2022-12-16T07:10:35.090Z,101177.94
2022-12-16T07:13:19.909Z,101183.22
2022-12-16T07:16:05.834Z,101169.69
2022-12-16T07:18:50.754Z,101190.22
2022-12-16T07:21:35.586Z,101199.94
2022-12-16T07:24:20.430Z,101194.75
2022-12-16T07:27:05.120Z,101206.06
2022-12-16T07:29:50.045Z,101205.28
2022-12-16T07:32:35.666Z,101215.72
2022-12-16T07:35:20.747Z,101210.50
2022-12-16T07:38:05.580Z,101225.19
2022-12-16T07:40:50.629Z,101222.63
2022-12-16T07:43:35.603Z,101230.53
2022-12-16T07:46:20.720Z,101240.94
2022-12-16T07:49:05.979Z,101235.84
2022-12-16T07:51:50.739Z,101243.59
2022-12-16T07:54:55.587Z,101258.28
2022-12-16T07:57:40.431Z,101254.72
2022-12-16T08:00:26.165Z,101262.22
2022-12-16T08:03:14.743Z,101242.09
2022-12-16T08:05:59.818Z,101263.44
2022-12-16T08:08:44.418Z,101264.97
2022-12-16T08:11:29.318Z,101269.84
2022-12-16T08:14:14.243Z,101271.06
2022-12-16T08:16:59.317Z,101275.16
2022-12-16T08:19:44.351Z,101277.44
2022-12-16T08:22:29.234Z,101283.00
2022-12-16T08:25:14.302Z,101292.28
2022-12-16T08:27:59.177Z,101293.66
2022-12-16T08:30:44.396Z,101311.50
2022-12-16T08:33:29.484Z,101311.22
2022-12-16T08:36:16.928Z,101312.50
2022-12-16T08:39:02.492Z,101327.94
2022-12-16T08:41:47.389Z,101325.00
2022-12-16T08:44:32.211Z,101329.06
2022-12-16T08:47:16.966Z,101337.56
2022-12-16T08:50:02.775Z,101333.91
2022-12-16T08:52:48.789Z,101344.88
2022-12-16T08:55:33.861Z,101329.88
2022-12-16T08:58:19.010Z,101335.69
2022-12-16T09:01:07.363Z,101341.44
2022-12-16T09:03:53.983Z,101354.06
2022-12-16T09:06:41.034Z,101342.50
2022-12-16T09:09:27.657Z,101350.91
2022-12-16T09:12:12.438Z,101362.88
2022-12-16T09:14:57.544Z,101346.13
2022-12-16T09:17:42.927Z,101364.19
2022-12-16T09:20:28.407Z,101363.19
2022-12-16T09:23:14.216Z,101381.22
2022-12-16T09:25:59.209Z,101363.88
2022-12-16T09:28:44.714Z,101373.09
2022-12-16T09:31:29.599Z,101375.59
2022-12-16T09:34:14.382Z,101382.44
2022-12-16T09:36:59.208Z,101389.06
2022-12-16T09:39:44.266Z,101390.63
2022-12-16T09:42:43.704Z,101388.75
2022-12-16T09:45:55.427Z,101385.97
2022-12-16T09:48:56.556Z,101397.84
2022-12-16T09:51:42.896Z,101391.75
2022-12-16T09:54:33.195Z,101408.84
2022-12-16T09:57:21.483Z,101399.91
2022-12-16T10:00:14.483Z,101402.56
2022-12-16T10:03:06.492Z,101399.66
2022-12-16T10:06:06.405Z,101391.47
2022-12-16T10:09:08.617Z,101406.06
2022-12-16T10:12:29.530Z,101410.09
2022-12-16T10:15:36.072Z,101412.53
2022-12-16T10:18:32.287Z,101410.75
2022-12-16T10:21:17.341Z,101421.16
2022-12-16T10:24:23.595Z,101417.41
2022-12-16T10:27:20.425Z,101412.97
2022-12-16T10:30:06.290Z,101411.97
2022-12-16T10:33:00.093Z,101411.69
2022-12-16T10:35:56.460Z,101419.50
2022-12-16T10:38:53.662Z,101420.16
2022-12-16T10:41:42.360Z,101421.94
2022-12-16T10:44:40.894Z,101421.63
2022-12-16T10:47:26.264Z,101427.88
2022-12-16T10:50:13.167Z,101430.19
2022-12-16T10:53:17.344Z,101418.50
2022-12-16T10:56:08.610Z,101427.25
2022-12-16T10:59:17.765Z,101430.50
2022-12-16T11:02:15.742Z,101418.22
2022-12-16T11:05:00.824Z,101419.19
2022-12-16T11:07:51.845Z,101426.81
2022-12-16T11:11:03.081Z,101415.06
2022-12-16T11:13:52.054Z,101414.47
2022-12-16T11:16:44.282Z,101411.22
2022-12-16T11:19:41.154Z,101415.47
2022-12-16T11:22:33.360Z,101413.63
2022-12-16T11:25:30.967Z,101410.81
2022-12-16T11:28:35.802Z,101421.22
2022-12-16T11:31:26.251Z,101420.34
2022-12-16T11:34:12.522Z,101417.78
2022-12-16T11:37:00.432Z,101422.00
2022-12-16T11:39:47.946Z,101420.28
2022-12-16T11:42:39.861Z,101433.09
2022-12-16T11:45:31.229Z,101433.84
2022-12-16T11:48:26.126Z,101438.97
2022-12-16T11:51:15.622Z,101433.69
2022-12-16T11:54:42.307Z,101441.16
2022-12-16T11:57:38.218Z,101436.81
2022-12-16T12:00:24.383Z,101448.28
2022-12-16T12:03:20.501Z,101454.34
2022-12-16T12:06:26.427Z,101451.56
2022-12-16T12:09:40.895Z,101453.41
2022-12-16T12:12:37.892Z,101453.56
2022-12-16T12:15:22.637Z,101456.41
2022-12-16T12:18:21.183Z,101460.97
2022-12-16T12:21:18.934Z,101458.41
2022-12-16T12:24:25.826Z,101461.22
2022-12-16T12:27:23.808Z,101465.78
2022-12-16T12:30:38.471Z,101467.69
2022-12-16T12:33:50.391Z,101477.31
2022-12-16T12:37:08.353Z,101477.50
2022-12-16T12:40:07.957Z,101475.97
2022-12-16T12:43:05.839Z,101481.38
2022-12-16T12:46:29.310Z,101479.66
2022-12-16T12:49:56.156Z,101482.38
2022-12-16T12:53:05.670Z,101485.94
2022-12-16T12:56:01.052Z,101472.06
2022-12-16T12:58:49.354Z,101483.22
2022-12-16T13:01:37.788Z,101477.81
2022-12-16T13:04:34.923Z,101486.34
2022-12-16T13:07:21.315Z,101491.84
2022-12-16T13:10:30.998Z,101501.16
2022-12-16T13:13:34.712Z,101502.94
2022-12-16T13:16:27.693Z,101511.06
2022-12-16T13:19:49.986Z,101509.56
2022-12-16T13:22:51.045Z,101499.59
2022-12-16T13:25:52.081Z,101511.41
2022-12-16T13:28:47.055Z,101493.06
2022-12-16T13:31:32.617Z,101516.09
2022-12-16T13:34:24.341Z,101495.66
2022-12-16T13:37:17.846Z,101519.53
2022-12-16T13:40:40.336Z,101515.47
2022-12-16T13:44:01.503Z,101521.25
2022-12-16T13:47:02.489Z,101517.25
2022-12-16T13:50:08.318Z,101521.78
2022-12-16T13:53:02.145Z,101516.59
2022-12-16T13:56:18.999Z,101524.28
2022-12-16T13:59:10.577Z,101532.13
2022-12-16T14:02:16.919Z,101535.06
2022-12-16T14:05:05.173Z,101535.78
2022-12-16T14:07:54.014Z,101538.13
2022-12-16T14:10:44.467Z,101546.75
2022-12-16T14:13:57.192Z,101544.06
2022-12-16T14:17:09.903Z,101549.31
2022-12-16T14:20:13.798Z,101549.59
2022-12-16T14:23:07.940Z,101548.16
2022-12-16T14:25:53.796Z,101555.53
2022-12-16T14:28:46.713Z,101559.31
2022-12-16T14:31:40.644Z,101550.97
2022-12-16T14:34:34.847Z,101559.19
2022-12-16T14:37:35.608Z,101562.31
2022-12-16T15:51:50.037Z,101665.91
2022-12-16T15:54:38.328Z,101671.09
2022-12-16T15:57:42.521Z,101659.94
2022-12-16T16:00:38.255Z,101657.31
2022-12-16T16:03:24.801Z,101672.28
2022-12-16T16:06:09.887Z,101677.44
2022-12-16T16:08:54.927Z,101633.97
2022-12-16T16:11:39.818Z,101676.88
2022-12-16T16:14:24.851Z,101643.66
2022-12-16T16:17:10.064Z,101669.53
2022-12-16T16:19:58.831Z,101673.31
2022-12-16T16:22:46.280Z,101682.88
2022-12-16T16:25:31.144Z,101693.63
2022-12-16T16:28:15.797Z,101683.44
2022-12-16T16:31:00.844Z,101685.41
2022-12-16T16:33:45.852Z,101682.09
2022-12-16T16:36:35.339Z,101714.00
2022-12-16T16:39:20.196Z,101661.25
2022-12-16T16:42:05.213Z,101616.66
2022-12-16T16:44:50.470Z,101628.81
2022-12-16T16:47:36.344Z,101584.69
2022-12-16T16:50:21.436Z,101719.06
2022-12-16T16:53:06.409Z,101706.88
2022-12-16T16:55:51.147Z,101668.28
2022-12-16T16:58:45.805Z,101716.03
2022-12-16T17:01:32.731Z,101725.53
2022-12-16T17:04:22.474Z,101718.56
2022-12-16T17:07:07.396Z,101727.97
2022-12-16T17:09:52.200Z,101722.81
2022-12-16T17:12:41.133Z,101709.75
2022-12-16T17:15:39.833Z,101735.47
2022-12-16T17:18:25.770Z,101733.75
2022-12-16T17:21:11.765Z,101733.66
2022-12-16T17:23:58.001Z,101730.97
2022-12-16T17:26:43.463Z,101695.88
2022-12-16T17:29:47.181Z,101746.53
2022-12-16T17:32:32.598Z,101744.91
2022-12-16T17:35:18.574Z,101748.34
2022-12-16T17:38:03.557Z,101740.75
2022-12-16T17:40:48.654Z,101751.06
2022-12-16T17:43:34.161Z,101716.66
2022-12-16T17:46:22.811Z,101757.81
2022-12-16T17:49:12.115Z,101751.91
2022-12-16T17:51:57.577Z,101745.81
2022-12-16T17:54:42.861Z,101770.88
2022-12-16T17:57:28.799Z,101772.63
2022-12-16T18:00:14.168Z,101740.97
2022-12-16T18:02:59.534Z,101747.94
2022-12-16T18:05:45.121Z,101751.16
2022-12-16T18:08:30.502Z,101777.78
2022-12-16T18:11:16.888Z,101759.84
2022-12-16T18:14:02.452Z,101792.47
2022-12-16T18:16:47.726Z,101795.00
2022-12-16T18:19:33.645Z,101799.34
2022-12-16T18:22:19.174Z,101802.69
2022-12-16T18:25:03.991Z,101794.09
2022-12-16T18:27:49.081Z,101809.56
2022-12-16T18:30:34.468Z,101775.91
2022-12-16T18:33:19.598Z,101809.41
2022-12-16T18:36:04.894Z,101773.28
2022-12-16T18:38:50.176Z,101798.25
2022-12-16T18:41:40.609Z,101801.59
2022-12-16T18:44:30.240Z,101817.94
2022-12-16T18:47:15.506Z,101807.56
2022-12-16T18:50:00.212Z,101811.19
2022-12-16T18:52:45.096Z,101826.63
2022-12-16T18:55:30.310Z,101817.97
2022-12-16T18:58:49.140Z,101805.13
2022-12-16T19:01:20.995Z,101815.91
2022-12-16T19:04:06.260Z,101796.34
2022-12-16T19:06:51.042Z,101826.50
2022-12-16T19:09:36.091Z,101826.31
2022-12-16T19:12:20.832Z,101831.56
2022-12-16T19:15:05.693Z,101805.56
2022-12-16T19:17:50.483Z,101812.63
2022-12-16T19:20:36.568Z,101827.91
2022-12-16T19:23:21.975Z,101835.69
2022-12-16T19:26:07.002Z,101809.94
2022-12-16T19:28:52.788Z,101817.53
2022-12-16T19:31:41.111Z,101803.03
2022-12-16T19:34:26.449Z,101823.63
2022-12-16T19:37:11.339Z,101839.81
2022-12-16T19:39:56.960Z,101846.94
2022-12-16T19:42:41.835Z,101844.22
2022-12-16T19:45:27.241Z,101839.91
2022-12-16T19:48:20.030Z,101860.72
2022-12-16T19:51:05.150Z,101855.47
2022-12-16T19:53:50.284Z,101858.94
2022-12-16T19:56:35.556Z,101859.78
2022-12-16T19:59:20.597Z,101834.19
2022-12-16T20:02:05.839Z,101861.47
2022-12-16T20:04:51.734Z,101866.91
2022-12-16T20:07:36.659Z,101843.47
2022-12-16T20:10:21.960Z,101858.03
2022-12-16T20:13:06.899Z,101861.63
2022-12-16T20:15:51.953Z,101849.66
2022-12-16T20:18:36.956Z,101877.22
2022-12-16T20:21:23.127Z,101873.72
2022-12-16T20:24:08.123Z,101866.94
2022-12-16T20:26:53.526Z,101886.00
2022-12-16T20:29:40.185Z,101882.53
2022-12-16T20:32:25.358Z,101888.63
2022-12-16T20:35:10.566Z,101885.28
2022-12-16T20:37:56.229Z,101874.22
2022-12-16T20:40:41.149Z,101862.94
2022-12-16T20:43:26.155Z,101892.50
2022-12-16T20:46:13.855Z,101890.69
2022-12-16T20:48:58.899Z,101884.81
2022-12-16T20:51:43.567Z,101903.75
2022-12-16T20:54:29.488Z,101900.44
2022-12-16T20:57:14.256Z,101904.81
2022-12-16T20:59:59.652Z,101910.03
2022-12-16T21:02:44.703Z,101921.25
2022-12-16T21:05:29.512Z,101902.28
2022-12-16T21:08:14.366Z,101928.03
2022-12-16T21:10:59.009Z,101938.53
2022-12-16T21:13:44.669Z,101929.81
2022-12-16T21:16:29.591Z,101921.97
2022-12-16T21:19:15.082Z,101921.25
2022-12-16T21:21:59.814Z,101925.53
2022-12-16T21:24:44.716Z,101905.91
2022-12-16T21:27:29.722Z,101921.38
2022-12-16T21:30:17.543Z,101929.16
2022-12-16T21:33:02.853Z,101930.03
2022-12-16T21:35:47.767Z,101946.75
2022-12-16T21:38:33.055Z,101942.50
2022-12-16T21:41:17.977Z,101926.34
2022-12-16T21:44:02.802Z,101925.63
2022-12-16T21:46:47.795Z,101950.88
2022-12-16T21:49:32.919Z,101955.56
2022-12-16T21:52:17.979Z,101950.41
2022-12-16T21:55:02.745Z,101929.09
2022-12-16T21:57:58.370Z,101939.66
2022-12-16T22:00:43.252Z,101957.94
2022-12-16T22:03:28.213Z,101962.59
2022-12-16T22:06:16.867Z,101952.31
2022-12-16T22:09:01.716Z,101952.69
2022-12-16T22:11:47.131Z,101936.63
2022-12-16T22:14:32.142Z,101927.56
2022-12-16T22:17:17.017Z,101937.22
2022-12-16T22:20:01.946Z,101958.19
2022-12-16T22:22:47.097Z,101954.19
2022-12-16T22:25:32.170Z,101938.97
2022-12-16T22:28:17.311Z,101924.56
2022-12-16T22:31:02.716Z,101953.25
2022-12-16T22:33:48.282Z,101955.16
2022-12-16T22:36:33.918Z,101962.38
2022-12-16T22:39:19.045Z,101951.44
2022-12-16T22:42:04.370Z,101963.66
2022-12-16T22:44:49.372Z,101964.81
2022-12-16T22:47:34.131Z,101943.44
2022-12-16T22:50:19.137Z,101972.97
2022-12-16T22:53:04.173Z,101955.13
2022-12-16T22:55:48.922Z,101969.88
2022-12-16T22:58:33.920Z,101972.56
2022-12-16T23:01:18.804Z,101974.47
2022-12-16T23:04:03.556Z,101969.41
2022-12-16T23:06:48.510Z,101970.44
2022-12-16T23:09:33.607Z,101955.00
2022-12-16T23:12:18.503Z,101971.47
2022-12-16T23:15:03.677Z,101950.28
2022-12-16T23:17:48.736Z,101977.84
2022-12-16T23:20:33.640Z,101986.63
2022-12-16T23:23:18.520Z,101977.34
2022-12-16T23:26:17.071Z,101986.03
2022-12-16T23:29:02.519Z,101994.91
2022-12-16T23:31:47.678Z,101986.44
2022-12-16T23:34:33.115Z,101998.63
2022-12-16T23:37:18.080Z,101998.81
2022-12-16T23:40:02.895Z,102004.09
2022-12-16T23:42:47.962Z,101994.59
2022-12-16T23:45:33.543Z,101980.97
2022-12-16T23:48:23.763Z,101996.59
2022-12-16T23:51:08.884Z,101994.13
2022-12-16T23:53:55.090Z,101976.97
2022-12-16T23:56:42.412Z,101983.13
2022-12-16T23:59:27.894Z,101973.66
